Time;durP1;ratioP1;P1;durP2;ratioP2;P2;SDS_P1;SDS_P2;PMS_P1;PMS_P2;Temp;Humidity;BMP_temperature;BMP_pressure;BME280_temperature;BME280_humidity;BME280_pressure;Samples;Min_cycle;Max_cycle;Signal;HPM_P1;HPM_P2
2023/07/24 00:00:14;;;;;;;3.90;3.50;;;;;;;-128.00;-1.00;-1.00;105798;1253;1003436;-77
2023/07/24 00:03:02;;;;;;;3.80;3.50;;;;;;;-128.00;-1.00;-1.00;105653;1253;1044007;-77
2023/07/24 00:05:29;;;;;;;4.20;3.30;;;;;;;-128.00;-1.00;-1.00;105847;1252;1003569;-77
2023/07/24 00:07:55;;;;;;;4.10;3.70;;;;;;;-128.00;-1.00;-1.00;105801;1253;1004474;-77
2023/07/24 00:10:22;;;;;;;4.50;3.60;;;;;;;-128.00;-1.00;-1.00;105831;1252;1003885;-77
2023/07/24 00:12:48;;;;;;;3.90;3.60;;;;;;;-128.00;-1.00;-1.00;105760;1253;1005028;-77
2023/07/24 00:15:14;;;;;;;3.80;3.30;;;;;;;-128.00;-1.00;-1.00;105777;1253;1004700;-76
2023/07/24 00:17:41;;;;;;;5.20;3.50;;;;;;;-128.00;-1.00;-1.00;105844;1253;1004374;-77
2023/07/24 00:20:08;;;;;;;4.60;3.60;;;;;;;-128.00;-1.00;-1.00;105778;1253;1003893;-77
2023/07/24 00:22:34;;;;;;;4.90;3.70;;;;;;;-128.00;-1.00;-1.00;105502;1252;1005255;-77
2023/07/24 00:25:01;;;;;;;5.80;3.70;;;;;;;-128.00;-1.00;-1.00;105845;1252;1004566;-77
2023/07/24 00:27:27;;;;;;;3.50;3.20;;;;;;;-128.00;-1.00;-1.00;105793;1253;1004701;-77
2023/07/24 00:29:54;;;;;;;4.50;3.70;;;;;;;-128.00;-1.00;-1.00;105825;1253;1004890;-77
2023/07/24 00:32:20;;;;;;;4.40;3.50;;;;;;;-128.00;-1.00;-1.00;105775;1253;1004046;-77
2023/07/24 00:34:47;;;;;;;3.90;3.60;;;;;;;-128.00;-1.00;-1.00;105798;1253;1004584;-77
2023/07/24 00:37:13;;;;;;;5.60;4.10;;;;;;;-128.00;-1.00;-1.00;105761;1252;1004452;-77
2023/07/24 00:39:40;;;;;;;5.40;4.10;;;;;;;-128.00;-1.00;-1.00;105802;1253;1004829;-77
2023/07/24 00:42:06;;;;;;;4.90;3.60;;;;;;;-128.00;-1.00;-1.00;105801;1253;1003325;-77
2023/07/24 00:44:33;;;;;;;4.50;4.00;;;;;;;-128.00;-1.00;-1.00;105834;1253;1004020;-77
2023/07/24 00:46:59;;;;;;;4.00;3.60;;;;;;;-128.00;-1.00;-1.00;105796;1253;1003958;-77
2023/07/24 00:49:26;;;;;;;6.00;3.60;;;;;;;-128.00;-1.00;-1.00;105577;1252;1003259;-76
2023/07/24 00:51:53;;;;;;;7.10;3.90;;;;;;;-128.00;-1.00;-1.00;105772;1256;1004441;-77
2023/07/24 00:54:22;;;;;;;5.30;4.10;;;;;;;-128.00;-1.00;-1.00;105772;1254;1004262;-77
2023/07/24 00:56:48;;;;;;;5.30;3.90;;;;;;;-128.00;-1.00;-1.00;105769;1253;1062134;-77
2023/07/24 00:59:15;;;;;;;5.00;4.10;;;;;;;-128.00;-1.00;-1.00;105836;1253;1004266;-76
2023/07/24 01:01:42;;;;;;;5.70;3.70;;;;;;;-128.00;-1.00;-1.00;105792;1253;1005445;-77
2023/07/24 01:04:09;;;;;;;4.60;3.70;;;;;;;-128.00;-1.00;-1.00;105802;1252;1003491;-77
2023/07/24 01:06:35;;;;;;;4.00;3.60;;;;;;;-128.00;-1.00;-1.00;105815;1253;1004802;-77
2023/07/24 01:09:02;;;;;;;4.20;3.80;;;;;;;-128.00;-1.00;-1.00;105817;1253;1003849;-77
2023/07/24 01:11:34;;;;;;;5.40;3.80;;;;;;;-128.00;-1.00;-1.00;105802;1253;1004867;-76
2023/07/24 01:14:13;;;;;;;4.20;3.80;;;;;;;-128.00;-1.00;-1.00;105806;1253;1059276;-77
2023/07/24 01:16:43;;;;;;;5.70;4.60;;;;;;;-128.00;-1.00;-1.00;105778;1253;1045392;-77
2023/07/24 01:19:17;;;;;;;4.00;3.70;;;;;;;-128.00;-1.00;-1.00;105792;1254;1046260;-77
2023/07/24 01:22:08;;;;;;;5.00;4.30;;;;;;;-128.00;-1.00;-1.00;105799;1253;1061759;-77
2023/07/24 01:24:53;;;;;;;5.20;3.90;;;;;;;-128.00;-1.00;-1.00;105802;1253;1055100;-77
2023/07/24 01:27:23;;;;;;;4.90;3.70;;;;;;;-128.00;-1.00;-1.00;105818;1253;1059588;-77
2023/07/24 01:29:50;;;;;;;5.70;4.30;;;;;;;-128.00;-1.00;-1.00;105792;1252;1046355;-77
2023/07/24 01:32:17;;;;;;;5.20;3.90;;;;;;;-128.00;-1.00;-1.00;105812;1253;1005258;-77
2023/07/24 01:34:44;;;;;;;5.60;3.90;;;;;;;-128.00;-1.00;-1.00;105849;1253;1004384;-78
2023/07/24 01:37:12;;;;;;;4.90;4.40;;;;;;;-128.00;-1.00;-1.00;105838;1253;1005891;-78
2023/07/24 01:39:41;;;;;;;5.10;4.40;;;;;;;-128.00;-1.00;-1.00;105746;1254;1003915;-75
2023/07/24 01:42:07;;;;;;;5.30;4.30;;;;;;;-128.00;-1.00;-1.00;105748;1253;1046909;-76
2023/07/24 01:44:34;;;;;;;7.60;4.40;;;;;;;-128.00;-1.00;-1.00;105522;1253;1004489;-75
2023/07/24 01:47:01;;;;;;;5.20;4.60;;;;;;;-128.00;-1.00;-1.00;105828;1254;1004436;-76
2023/07/24 01:49:27;;;;;;;7.40;4.50;;;;;;;-128.00;-1.00;-1.00;105797;1254;1004344;-76
2023/07/24 01:51:54;;;;;;;5.00;4.60;;;;;;;-128.00;-1.00;-1.00;105779;1252;1005182;-76
2023/07/24 01:54:20;;;;;;;7.10;4.90;;;;;;;-128.00;-1.00;-1.00;105526;1254;1005484;-76
2023/07/24 01:56:47;;;;;;;7.90;5.00;;;;;;;-128.00;-1.00;-1.00;105829;1253;1004456;-76
2023/07/24 01:59:13;;;;;;;5.70;5.10;;;;;;;-128.00;-1.00;-1.00;105813;1252;1003861;-76
2023/07/24 02:01:40;;;;;;;5.50;4.70;;;;;;;-128.00;-1.00;-1.00;105816;1253;1003956;-76
2023/07/24 02:04:06;;;;;;;5.60;4.90;;;;;;;-128.00;-1.00;-1.00;105770;1253;1004421;-76
2023/07/24 02:06:33;;;;;;;6.10;4.80;;;;;;;-128.00;-1.00;-1.00;105812;1254;1004883;-76
2023/07/24 02:08:59;;;;;;;6.40;5.10;;;;;;;-128.00;-1.00;-1.00;105500;1252;1004814;-75
2023/07/24 02:11:26;;;;;;;7.00;5.10;;;;;;;-128.00;-1.00;-1.00;105781;1254;1004195;-76
2023/07/24 02:13:52;;;;;;;5.40;4.60;;;;;;;-128.00;-1.00;-1.00;105803;1253;1004278;-77
2023/07/24 02:16:18;;;;;;;6.50;5.10;;;;;;;-128.00;-1.00;-1.00;105785;1254;1004722;-76
2023/07/24 02:18:45;;;;;;;5.10;4.40;;;;;;;-128.00;-1.00;-1.00;105791;1253;1005159;-75
2023/07/24 02:21:11;;;;;;;6.30;5.30;;;;;;;-128.00;-1.00;-1.00;105818;1256;1004546;-77
2023/07/24 02:23:38;;;;;;;6.90;6.30;;;;;;;-128.00;-1.00;-1.00;105786;1254;1004087;-76
2023/07/24 02:26:04;;;;;;;6.70;5.90;;;;;;;-128.00;-1.00;-1.00;105814;1256;1004525;-76
2023/07/24 02:28:31;;;;;;;8.80;6.80;;;;;;;-128.00;-1.00;-1.00;105849;1253;1005033;-75
2023/07/24 02:30:58;;;;;;;9.70;6.30;;;;;;;-128.00;-1.00;-1.00;105805;1254;1004268;-76
2023/07/24 02:33:25;;;;;;;7.90;6.10;;;;;;;-128.00;-1.00;-1.00;105850;1252;1004160;-76
2023/07/24 02:35:52;;;;;;;7.00;6.20;;;;;;;-128.00;-1.00;-1.00;105848;1253;1004347;-76
2023/07/24 02:38:19;;;;;;;8.20;6.10;;;;;;;-128.00;-1.00;-1.00;105901;1253;1003718;-76
2023/07/24 02:40:46;;;;;;;7.60;6.00;;;;;;;-128.00;-1.00;-1.00;105799;1256;1004458;-76
2023/07/24 02:43:12;;;;;;;6.50;5.80;;;;;;;-128.00;-1.00;-1.00;105604;1254;1003599;-76
2023/07/24 02:45:39;;;;;;;6.70;5.70;;;;;;;-128.00;-1.00;-1.00;105824;1255;1004763;-76
2023/07/24 02:48:08;;;;;;;7.30;5.80;;;;;;;-128.00;-1.00;-1.00;105541;1254;1004931;-77
2023/07/24 02:50:35;;;;;;;7.60;5.70;;;;;;;-128.00;-1.00;-1.00;105897;1252;1055150;-77
2023/07/24 02:53:02;;;;;;;7.20;5.70;;;;;;;-128.00;-1.00;-1.00;105774;1254;1004039;-76
2023/07/24 02:55:28;;;;;;;6.90;5.60;;;;;;;-128.00;-1.00;-1.00;105758;1253;1004658;-76
2023/07/24 02:57:54;;;;;;;8.20;5.90;;;;;;;-128.00;-1.00;-1.00;105838;1253;1004147;-76
2023/07/24 03:00:21;;;;;;;6.40;5.80;;;;;;;-128.00;-1.00;-1.00;105514;1253;1004375;-76
2023/07/24 03:02:48;;;;;;;6.40;5.80;;;;;;;-128.00;-1.00;-1.00;105801;1253;1004928;-76
2023/07/24 03:05:14;;;;;;;7.70;5.50;;;;;;;-128.00;-1.00;-1.00;105779;1254;1004160;-76
2023/07/24 03:07:41;;;;;;;6.90;5.70;;;;;;;-128.00;-1.00;-1.00;105831;1253;1004010;-76
2023/07/24 03:10:08;;;;;;;9.20;6.40;;;;;;;-128.00;-1.00;-1.00;105809;1253;1004675;-76
2023/07/24 03:12:34;;;;;;;8.00;6.80;;;;;;;-128.00;-1.00;-1.00;105813;1254;1003987;-76
2023/07/24 03:15:01;;;;;;;7.30;6.20;;;;;;;-128.00;-1.00;-1.00;105868;1253;1004104;-76
2023/07/24 03:17:27;;;;;;;7.50;6.20;;;;;;;-128.00;-1.00;-1.00;105800;1255;1003274;-76
2023/07/24 03:19:55;;;;;;;6.40;5.80;;;;;;;-128.00;-1.00;-1.00;105478;1254;1004764;-76
2023/07/24 03:22:21;;;;;;;6.80;6.00;;;;;;;-128.00;-1.00;-1.00;105801;1253;1005046;-77
2023/07/24 03:24:48;;;;;;;7.30;6.00;;;;;;;-128.00;-1.00;-1.00;105821;1253;1004080;-76
2023/07/24 03:27:14;;;;;;;6.60;5.60;;;;;;;-128.00;-1.00;-1.00;105804;1254;1004678;-75
2023/07/24 03:29:41;;;;;;;7.10;6.40;;;;;;;-128.00;-1.00;-1.00;105781;1253;1003856;-76
2023/07/24 03:32:07;;;;;;;6.90;5.90;;;;;;;-128.00;-1.00;-1.00;105800;1252;1004512;-77
2023/07/24 03:34:34;;;;;;;8.50;6.20;;;;;;;-128.00;-1.00;-1.00;105850;1253;1004425;-77
2023/07/24 03:37:00;;;;;;;8.40;5.70;;;;;;;-128.00;-1.00;-1.00;105813;1253;1005205;-77
2023/07/24 03:39:27;;;;;;;6.90;6.20;;;;;;;-128.00;-1.00;-1.00;105754;1253;1003798;-76
2023/07/24 03:41:54;;;;;;;8.20;6.20;;;;;;;-128.00;-1.00;-1.00;105821;1254;1005674;-77
2023/07/24 03:44:20;;;;;;;7.60;6.10;;;;;;;-128.00;-1.00;-1.00;105764;1252;1005099;-77
2023/07/24 03:46:47;;;;;;;7.50;6.20;;;;;;;-128.00;-1.00;-1.00;105802;1254;1004541;-77
2023/07/24 03:49:13;;;;;;;8.90;6.60;;;;;;;-128.00;-1.00;-1.00;105858;1253;1004040;-76
2023/07/24 03:51:40;;;;;;;8.90;5.70;;;;;;;-128.00;-1.00;-1.00;105772;1253;1004087;-77
2023/07/24 03:54:07;;;;;;;10.50;6.50;;;;;;;-128.00;-1.00;-1.00;105787;1253;1004739;-76
2023/07/24 03:56:34;;;;;;;7.70;6.20;;;;;;;-128.00;-1.00;-1.00;105602;1254;1004392;-77
2023/07/24 03:59:00;;;;;;;9.20;6.40;;;;;;;-128.00;-1.00;-1.00;105818;1252;1005434;-76
2023/07/24 04:01:27;;;;;;;8.50;6.70;;;;;;;-128.00;-1.00;-1.00;105806;1254;1004621;-77
2023/07/24 04:03:54;;;;;;;8.90;6.60;;;;;;;-128.00;-1.00;-1.00;105758;1253;1003891;-76
2023/07/24 04:06:21;;;;;;;9.40;6.30;;;;;;;-128.00;-1.00;-1.00;105806;1254;1003448;-77
2023/07/24 04:08:47;;;;;;;8.50;6.60;;;;;;;-128.00;-1.00;-1.00;105785;1253;1004592;-77
2023/07/24 04:11:14;;;;;;;7.70;6.90;;;;;;;-128.00;-1.00;-1.00;105845;1253;1005175;-76
2023/07/24 04:14:01;;;;;;;8.00;6.00;;;;;;;-128.00;-1.00;-1.00;105533;1254;1062007;-77
2023/07/24 04:16:27;;;;;;;9.20;6.30;;;;;;;-128.00;-1.00;-1.00;105509;1254;1003917;-77
2023/07/24 04:18:54;;;;;;;9.50;5.60;;;;;;;-128.00;-1.00;-1.00;105609;1254;1004184;-79
2023/07/24 04:21:22;;;;;;;7.00;6.20;;;;;;;-128.00;-1.00;-1.00;105591;1254;1004983;-76
2023/07/24 04:23:49;;;;;;;8.60;5.80;;;;;;;-128.00;-1.00;-1.00;105587;1254;1005115;-77
2023/07/24 04:26:15;;;;;;;6.90;6.10;;;;;;;-128.00;-1.00;-1.00;105629;1254;1003590;-76
2023/07/24 04:28:42;;;;;;;8.00;6.00;;;;;;;-128.00;-1.00;-1.00;105669;1254;1003961;-76
2023/07/24 04:31:09;;;;;;;7.20;6.00;;;;;;;-128.00;-1.00;-1.00;105609;1254;1004529;-77
2023/07/24 04:33:35;;;;;;;7.40;6.40;;;;;;;-128.00;-1.00;-1.00;105598;1254;1003525;-76
2023/07/24 04:36:02;;;;;;;8.20;6.00;;;;;;;-128.00;-1.00;-1.00;105599;1254;1004561;-77
2023/07/24 04:38:29;;;;;;;6.50;5.90;;;;;;;-128.00;-1.00;-1.00;105631;1254;1004705;-77
2023/07/24 04:40:56;;;;;;;6.30;5.50;;;;;;;-128.00;-1.00;-1.00;105647;1254;1004082;-77
2023/07/24 04:43:23;;;;;;;6.30;5.70;;;;;;;-128.00;-1.00;-1.00;105589;1254;1003902;-77
2023/07/24 04:45:49;;;;;;;6.20;5.30;;;;;;;-128.00;-1.00;-1.00;105653;1254;1003982;-76
2023/07/24 04:48:16;;;;;;;6.20;5.50;;;;;;;-128.00;-1.00;-1.00;105683;1254;1004103;-77
2023/07/24 04:50:43;;;;;;;6.20;5.70;;;;;;;-128.00;-1.00;-1.00;105640;1254;1004595;-76
2023/07/24 04:53:09;;;;;;;6.20;5.50;;;;;;;-128.00;-1.00;-1.00;105822;1253;1004574;-75
2023/07/24 04:55:36;;;;;;;6.00;5.40;;;;;;;-128.00;-1.00;-1.00;105764;1253;1003816;-77
2023/07/24 04:58:03;;;;;;;8.60;6.30;;;;;;;-128.00;-1.00;-1.00;105798;1253;1005012;-77
2023/07/24 05:00:29;;;;;;;7.30;6.60;;;;;;;-128.00;-1.00;-1.00;105768;1253;1004923;-77
2023/07/24 05:02:56;;;;;;;6.80;6.10;;;;;;;-128.00;-1.00;-1.00;105824;1254;1003962;-77
2023/07/24 05:05:22;;;;;;;6.80;5.80;;;;;;;-128.00;-1.00;-1.00;105778;1253;1004711;-76
2023/07/24 05:07:49;;;;;;;5.80;5.30;;;;;;;-128.00;-1.00;-1.00;105777;1252;1004288;-77
2023/07/24 05:10:15;;;;;;;7.10;6.00;;;;;;;-128.00;-1.00;-1.00;105416;1256;1004008;-77
2023/07/24 05:12:44;;;;;;;5.90;5.30;;;;;;;-128.00;-1.00;-1.00;105523;1256;1004008;-77
2023/07/24 05:15:10;;;;;;;5.50;5.00;;;;;;;-128.00;-1.00;-1.00;105483;1256;1061757;-76
2023/07/24 05:17:37;;;;;;;7.40;5.10;;;;;;;-128.00;-1.00;-1.00;105459;1256;1003921;-76
2023/07/24 05:20:04;;;;;;;7.40;5.90;;;;;;;-128.00;-1.00;-1.00;105445;1256;1003994;-76
2023/07/24 05:22:31;;;;;;;7.20;5.90;;;;;;;-128.00;-1.00;-1.00;105454;1256;1004185;-76
2023/07/24 05:24:57;;;;;;;6.50;5.00;;;;;;;-128.00;-1.00;-1.00;105455;1257;1004191;-76
2023/07/24 05:27:23;;;;;;;8.20;5.60;;;;;;;-128.00;-1.00;-1.00;105446;1257;1004452;-76
2023/07/24 05:29:50;;;;;;;6.50;5.70;;;;;;;-128.00;-1.00;-1.00;105421;1256;1004145;-76
2023/07/24 05:32:16;;;;;;;6.00;5.40;;;;;;;-128.00;-1.00;-1.00;105438;1256;1004177;-76
2023/07/24 05:34:43;;;;;;;7.90;5.40;;;;;;;-128.00;-1.00;-1.00;105439;1256;1005050;-75
2023/07/24 05:37:09;;;;;;;6.10;5.60;;;;;;;-128.00;-1.00;-1.00;105454;1257;1005045;-75
2023/07/24 05:39:36;;;;;;;6.20;5.60;;;;;;;-128.00;-1.00;-1.00;105437;1256;1004489;-76
2023/07/24 05:42:03;;;;;;;9.10;6.20;;;;;;;-128.00;-1.00;-1.00;105631;1253;1004207;-76
2023/07/24 05:44:30;;;;;;;5.30;4.80;;;;;;;-128.00;-1.00;-1.00;105783;1253;1003824;-76
2023/07/24 05:46:56;;;;;;;6.00;5.30;;;;;;;-128.00;-1.00;-1.00;105520;1253;1004432;-76
2023/07/24 05:49:23;;;;;;;6.80;5.70;;;;;;;-128.00;-1.00;-1.00;105832;1254;1003579;-76
2023/07/24 05:51:49;;;;;;;6.80;5.80;;;;;;;-128.00;-1.00;-1.00;105778;1252;1003757;-76
2023/07/24 05:54:16;;;;;;;7.00;5.30;;;;;;;-128.00;-1.00;-1.00;105800;1253;1004006;-76
2023/07/24 05:56:42;;;;;;;6.30;5.50;;;;;;;-128.00;-1.00;-1.00;105579;1253;1004062;-76
2023/07/24 05:59:09;;;;;;;27.90;8.50;;;;;;;-128.00;-1.00;-1.00;105753;1253;1004485;-76
2023/07/24 06:01:35;;;;;;;7.00;5.70;;;;;;;-128.00;-1.00;-1.00;105786;1253;1004113;-76
2023/07/24 06:04:02;;;;;;;11.70;6.10;;;;;;;-128.00;-1.00;-1.00;105804;1253;1004310;-77
2023/07/24 06:06:28;;;;;;;7.10;5.10;;;;;;;-128.00;-1.00;-1.00;105502;1253;1004011;-76
2023/07/24 06:08:55;;;;;;;16.10;6.90;;;;;;;-128.00;-1.00;-1.00;105721;1253;1004288;-76
2023/07/24 06:11:22;;;;;;;7.00;5.20;;;;;;;-128.00;-1.00;-1.00;105616;1253;1004134;-76
2023/07/24 06:13:49;;;;;;;8.50;5.50;;;;;;;-128.00;-1.00;-1.00;105822;1253;1003824;-76
2023/07/24 06:16:15;;;;;;;7.80;5.60;;;;;;;-128.00;-1.00;-1.00;105781;1253;1004151;-76
2023/07/24 06:18:42;;;;;;;9.20;5.00;;;;;;;-128.00;-1.00;-1.00;105839;1253;1004221;-77
2023/07/24 06:21:09;;;;;;;22.90;7.70;;;;;;;-128.00;-1.00;-1.00;105573;1254;1003975;-76
2023/07/24 06:23:35;;;;;;;9.80;5.80;;;;;;;-128.00;-1.00;-1.00;105747;1253;1004224;-76
2023/07/24 06:26:02;;;;;;;6.10;5.50;;;;;;;-128.00;-1.00;-1.00;105752;1253;1003681;-77
2023/07/24 06:28:28;;;;;;;6.00;5.20;;;;;;;-128.00;-1.00;-1.00;105796;1252;1003853;-76
2023/07/24 06:30:55;;;;;;;5.50;5.00;;;;;;;-128.00;-1.00;-1.00;105816;1253;1004192;-76
2023/07/24 06:33:21;;;;;;;6.00;5.50;;;;;;;-128.00;-1.00;-1.00;105815;1252;1004324;-76
2023/07/24 06:35:49;;;;;;;5.90;5.30;;;;;;;-128.00;-1.00;-1.00;105735;1253;1003789;-76
2023/07/24 06:38:16;;;;;;;6.20;5.60;;;;;;;-128.00;-1.00;-1.00;105493;1254;1005179;-75
2023/07/24 06:40:43;;;;;;;6.50;6.00;;;;;;;-128.00;-1.00;-1.00;105821;1252;1005068;-76
2023/07/24 06:43:09;;;;;;;6.20;5.30;;;;;;;-128.00;-1.00;-1.00;105833;1253;1005151;-76
2023/07/24 06:45:36;;;;;;;6.80;5.60;;;;;;;-128.00;-1.00;-1.00;105788;1253;1004245;-76
2023/07/24 06:48:03;;;;;;;6.20;5.70;;;;;;;-128.00;-1.00;-1.00;105833;1253;1006568;-75
2023/07/24 06:50:29;;;;;;;6.10;5.40;;;;;;;-128.00;-1.00;-1.00;105811;1253;1004141;-76
2023/07/24 06:52:56;;;;;;;5.70;5.20;;;;;;;-128.00;-1.00;-1.00;105760;1253;1003483;-75
2023/07/24 06:55:22;;;;;;;11.50;6.30;;;;;;;-128.00;-1.00;-1.00;105793;1252;1003905;-76
2023/07/24 06:57:49;;;;;;;9.80;5.60;;;;;;;-128.00;-1.00;-1.00;105798;1253;1005953;-76
2023/07/24 07:00:15;;;;;;;5.80;5.30;;;;;;;-128.00;-1.00;-1.00;105752;1252;1004015;-76
2023/07/24 07:02:42;;;;;;;5.20;4.80;;;;;;;-128.00;-1.00;-1.00;105807;1253;1005977;-76
2023/07/24 07:05:09;;;;;;;5.20;4.80;;;;;;;-128.00;-1.00;-1.00;105740;1253;1003404;-75
2023/07/24 07:07:35;;;;;;;22.70;8.20;;;;;;;-128.00;-1.00;-1.00;105746;1253;1004886;-75
2023/07/24 07:10:02;;;;;;;7.30;5.60;;;;;;;-128.00;-1.00;-1.00;105766;1252;1003520;-75
2023/07/24 07:12:28;;;;;;;6.40;5.60;;;;;;;-128.00;-1.00;-1.00;105719;1252;1004725;-75
2023/07/24 07:14:55;;;;;;;5.30;4.80;;;;;;;-128.00;-1.00;-1.00;105763;1252;1003992;-75
2023/07/24 07:17:21;;;;;;;6.10;5.40;;;;;;;-128.00;-1.00;-1.00;105777;1253;1004103;-75
2023/07/24 07:19:48;;;;;;;5.20;4.80;;;;;;;-128.00;-1.00;-1.00;105808;1253;1004649;-75
2023/07/24 07:22:14;;;;;;;6.10;5.50;;;;;;;-128.00;-1.00;-1.00;105745;1253;1004802;-75
2023/07/24 07:24:41;;;;;;;5.90;5.40;;;;;;;-128.00;-1.00;-1.00;105492;1252;1003701;-75
2023/07/24 07:27:07;;;;;;;6.10;5.30;;;;;;;-128.00;-1.00;-1.00;105741;1253;1003173;-75
2023/07/24 07:29:34;;;;;;;5.60;5.00;;;;;;;-128.00;-1.00;-1.00;105750;1253;1004675;-75
2023/07/24 07:32:00;;;;;;;6.70;6.00;;;;;;;-128.00;-1.00;-1.00;105782;1252;1004981;-75
2023/07/24 07:34:27;;;;;;;7.70;6.00;;;;;;;-128.00;-1.00;-1.00;105729;1253;1003982;-76
2023/07/24 07:36:53;;;;;;;5.90;5.40;;;;;;;-128.00;-1.00;-1.00;105737;1252;1005131;-76
2023/07/24 07:39:20;;;;;;;6.10;5.60;;;;;;;-128.00;-1.00;-1.00;105812;1252;1004779;-76
2023/07/24 07:41:46;;;;;;;6.00;5.50;;;;;;;-128.00;-1.00;-1.00;105821;1252;1004444;-76
2023/07/24 07:44:13;;;;;;;10.40;5.80;;;;;;;-128.00;-1.00;-1.00;105614;1253;1003901;-75
2023/07/24 07:46:39;;;;;;;6.50;5.80;;;;;;;-128.00;-1.00;-1.00;105766;1252;1003814;-75
2023/07/24 07:49:06;;;;;;;6.00;5.50;;;;;;;-128.00;-1.00;-1.00;105751;1252;1004595;-76
2023/07/24 07:51:32;;;;;;;9.70;5.90;;;;;;;-128.00;-1.00;-1.00;105777;1252;1003758;-76
2023/07/24 07:53:59;;;;;;;6.40;5.80;;;;;;;-128.00;-1.00;-1.00;105798;1253;1004584;-76
2023/07/24 07:56:26;;;;;;;7.70;5.40;;;;;;;-128.00;-1.00;-1.00;105794;1253;1004223;-76
2023/07/24 07:58:54;;;;;;;7.90;6.30;;;;;;;-128.00;-1.00;-1.00;105767;1252;1005710;-76
2023/07/24 08:01:20;;;;;;;13.40;6.40;;;;;;;-128.00;-1.00;-1.00;105781;1253;1004347;-76
2023/07/24 08:03:47;;;;;;;9.30;5.80;;;;;;;-128.00;-1.00;-1.00;105790;1253;1006129;-76
2023/07/24 08:06:13;;;;;;;7.90;6.00;;;;;;;-128.00;-1.00;-1.00;105817;1253;1004515;-75
2023/07/24 08:08:40;;;;;;;6.40;5.80;;;;;;;-128.00;-1.00;-1.00;105831;1253;1003489;-75
2023/07/24 08:11:07;;;;;;;7.60;6.50;;;;;;;-128.00;-1.00;-1.00;105773;1253;1004367;-77
2023/07/24 08:13:34;;;;;;;6.60;6.00;;;;;;;-128.00;-1.00;-1.00;105758;1253;1004615;-76
2023/07/24 08:16:02;;;;;;;6.60;5.90;;;;;;;-128.00;-1.00;-1.00;105824;1253;1004215;-76
2023/07/24 08:18:32;;;;;;;7.10;5.90;;;;;;;-128.00;-1.00;-1.00;105508;1253;1061758;-75
2023/07/24 08:20:58;;;;;;;;;;;;;;;-128.00;-1.00;-1.00;105833;1253;1055480;-75
2023/07/24 08:23:25;;;;;;;8.30;6.00;;;;;;;-128.00;-1.00;-1.00;105795;1253;1004900;-76
2023/07/24 08:25:55;;;;;;;6.20;5.70;;;;;;;-128.00;-1.00;-1.00;105728;1253;1005246;-76
2023/07/24 08:28:21;;;;;;;6.90;6.20;;;;;;;-128.00;-1.00;-1.00;105804;1252;1047095;-76
2023/07/24 08:30:58;;;;;;;7.10;5.60;;;;;;;-128.00;-1.00;-1.00;105775;1253;1004854;-76
2023/07/24 08:33:25;;;;;;;9.00;6.60;;;;;;;-128.00;-1.00;-1.00;105803;1253;1056802;-76
2023/07/24 08:36:03;;;;;;;7.30;6.60;;;;;;;-128.00;-1.00;-1.00;105786;1252;1005608;-77
2023/07/24 08:38:30;;;;;;;6.90;6.20;;;;;;;-128.00;-1.00;-1.00;105772;1252;1045536;-76
2023/07/24 08:41:07;;;;;;;7.10;6.50;;;;;;;-128.00;-1.00;-1.00;105680;1252;1004094;-76
2023/07/24 08:43:37;;;;;;;7.30;6.60;;;;;;;-128.00;-1.00;-1.00;105840;1252;1061261;-75
2023/07/24 08:46:04;;;;;;;7.60;6.90;;;;;;;-128.00;-1.00;-1.00;105752;1253;1054826;-75
2023/07/24 08:48:35;;;;;;;8.00;6.60;;;;;;;-128.00;-1.00;-1.00;105562;1256;1004338;-75
2023/07/24 08:51:06;;;;;;;7.10;6.10;;;;;;;-128.00;-1.00;-1.00;105622;1253;1044869;-76
2023/07/24 08:53:36;;;;;;;6.70;6.10;;;;;;;-128.00;-1.00;-1.00;105800;1253;1046672;-77
2023/07/24 08:56:07;;;;;;;6.30;5.80;;;;;;;-128.00;-1.00;-1.00;105805;1253;1062134;-76
2023/07/24 08:58:34;;;;;;;9.40;6.90;;;;;;;-128.00;-1.00;-1.00;105764;1253;1055992;-76
2023/07/24 09:01:02;;;;;;;8.30;6.10;;;;;;;-128.00;-1.00;-1.00;105631;1253;1004078;-76
2023/07/24 09:03:30;;;;;;;7.10;6.50;;;;;;;-128.00;-1.00;-1.00;105818;1252;1004295;-75
2023/07/24 09:05:56;;;;;;;7.00;6.40;;;;;;;-128.00;-1.00;-1.00;105841;1252;1005025;-76
2023/07/24 09:08:38;;;;;;;8.80;7.40;;;;;;;-128.00;-1.00;-1.00;105790;1253;1003624;-76
2023/07/24 09:11:06;;;;;;;9.10;8.20;;;;;;;-128.00;-1.00;-1.00;105521;1253;1056555;-76
2023/07/24 09:13:36;;;;;;;7.80;6.90;;;;;;;-128.00;-1.00;-1.00;105778;1252;1004288;-76
2023/07/24 09:16:02;;;;;;;7.80;6.70;;;;;;;-128.00;-1.00;-1.00;105773;1253;1044777;-75
2023/07/24 09:18:42;;;;;;;8.00;6.80;;;;;;;-128.00;-1.00;-1.00;105799;1252;1004292;-76
2023/07/24 09:21:12;;;;;;;9.10;7.30;;;;;;;-128.00;-1.00;-1.00;105805;1252;1061973;-76
2023/07/24 09:23:43;;;;;;;;;;;;;;;-128.00;-1.00;-1.00;105776;1253;1055055;-76
2023/07/24 09:26:10;;;;;;;9.30;7.10;;;;;;;-128.00;-1.00;-1.00;105802;1253;1059765;-77
2023/07/24 09:28:36;;;;;;;9.20;7.10;;;;;;;-128.00;-1.00;-1.00;105663;1253;1004713;-76
2023/07/24 09:31:04;;;;;;;6.80;6.10;;;;;;;-128.00;-1.00;-1.00;105442;1252;1004292;-76
2023/07/24 09:33:36;;;;;;;7.20;6.50;;;;;;;-128.00;-1.00;-1.00;105772;1253;1003643;-76
2023/07/24 09:36:04;;;;;;;8.30;7.40;;;;;;;-128.00;-1.00;-1.00;105800;1253;1055222;-76
2023/07/24 09:38:31;;;;;;;10.20;6.70;;;;;;;-128.00;-1.00;-1.00;105819;1252;1059131;-76
2023/07/24 09:40:58;;;;;;;41.60;11.10;;;;;;;-128.00;-1.00;-1.00;105731;1252;1006873;-75
2023/07/24 09:43:27;;;;;;;12.30;7.20;;;;;;;-128.00;-1.00;-1.00;105674;1253;1004694;-75
2023/07/24 09:45:54;;;;;;;9.00;6.30;;;;;;;-128.00;-1.00;-1.00;105648;1253;1061043;-76
2023/07/24 09:48:23;;;;;;;10.30;7.20;;;;;;;-128.00;-1.00;-1.00;105762;1253;1003796;-76
2023/07/24 09:50:55;;;;;;;9.50;7.10;;;;;;;-128.00;-1.00;-1.00;105750;1253;1004374;-76
2023/07/24 09:53:53;;;;;;;12.90;8.30;;;;;;;-128.00;-1.00;-1.00;105564;1253;1044307;-76
2023/07/24 09:56:20;;;;;;;9.30;8.30;;;;;;;-128.00;-1.00;-1.00;105757;1252;1045987;-76
2023/07/24 09:58:49;;;;;;;9.60;7.10;;;;;;;-128.00;-1.00;-1.00;105795;1253;1004229;-76
2023/07/24 10:01:16;;;;;;;19.20;15.80;;;;;;;-128.00;-1.00;-1.00;105776;1253;1004658;-76
2023/07/24 10:03:50;;;;;;;13.50;11.30;;;;;;;-128.00;-1.00;-1.00;105759;1253;1004461;-76
2023/07/24 10:06:17;;;;;;;19.50;11.20;;;;;;;-128.00;-1.00;-1.00;105784;1253;1045526;-76
2023/07/24 10:08:44;;;;;;;13.60;11.30;;;;;;;-128.00;-1.00;-1.00;105655;1253;1004743;-76
2023/07/24 10:11:12;;;;;;;13.10;11.20;;;;;;;-128.00;-1.00;-1.00;105790;1253;1003942;-76
2023/07/24 10:13:40;;;;;;;10.70;8.80;;;;;;;-128.00;-1.00;-1.00;105738;1252;1004404;-76
2023/07/24 10:16:07;;;;;;;11.10;8.60;;;;;;;-128.00;-1.00;-1.00;105785;1252;1004786;-76
2023/07/24 10:18:41;;;;;;;8.80;7.90;;;;;;;-128.00;-1.00;-1.00;105733;1252;1004471;-76
2023/07/24 10:21:10;;;;;;;9.40;7.70;;;;;;;-128.00;-1.00;-1.00;105797;1252;1047349;-76
2023/07/24 10:23:46;;;;;;;13.50;7.80;;;;;;;-128.00;-1.00;-1.00;105546;1252;1004064;-76
2023/07/24 10:26:14;;;;;;;12.30;7.50;;;;;;;-128.00;-1.00;-1.00;105811;1253;1056376;-76
2023/07/24 10:28:41;;;;;;;12.20;8.30;;;;;;;-128.00;-1.00;-1.00;105652;1252;1004114;-76
2023/07/24 10:31:22;;;;;;;21.50;8.50;;;;;;;-128.00;-1.00;-1.00;105814;1252;1004364;-76
2023/07/24 10:33:50;;;;;;;14.90;8.60;;;;;;;-128.00;-1.00;-1.00;105802;1252;1045667;-76
2023/07/24 10:36:19;;;;;;;14.60;7.40;;;;;;;-128.00;-1.00;-1.00;105800;1253;1004293;-76
2023/07/24 10:38:51;;;;;;;8.90;7.60;;;;;;;-128.00;-1.00;-1.00;105819;1252;1056120;-76
2023/07/24 10:41:18;;;;;;;7.60;6.90;;;;;;;-128.00;-1.00;-1.00;105794;1252;1058389;-75
2023/07/24 10:43:47;;;;;;;11.40;8.10;;;;;;;-128.00;-1.00;-1.00;105826;1253;1003771;-76
2023/07/24 10:46:15;;;;;;;10.20;7.30;;;;;;;-128.00;-1.00;-1.00;105827;1252;1047355;-76
2023/07/24 10:48:44;;;;;;;8.30;7.50;;;;;;;-128.00;-1.00;-1.00;105792;1253;1003680;-76
2023/07/24 10:51:13;;;;;;;9.50;7.90;;;;;;;-128.00;-1.00;-1.00;105816;1253;1056470;-76
2023/07/24 10:53:45;;;;;;;8.40;7.40;;;;;;;-128.00;-1.00;-1.00;105759;1253;1058905;-75
2023/07/24 10:56:12;;;;;;;9.70;7.90;;;;;;;-128.00;-1.00;-1.00;105778;1252;1046336;-75
2023/07/24 10:58:39;;;;;;;8.90;8.00;;;;;;;-128.00;-1.00;-1.00;105800;1252;1004154;-75
2023/07/24 11:01:08;;;;;;;14.30;8.00;;;;;;;-128.00;-1.00;-1.00;105795;1252;1004473;-75
2023/07/24 11:03:41;;;;;;;8.00;7.20;;;;;;;-128.00;-1.00;-1.00;105806;1253;1004331;-76
2023/07/24 11:06:19;;;;;;;8.20;7.40;;;;;;;-128.00;-1.00;-1.00;105566;1252;1060950;-75
2023/07/24 11:08:53;;;;;;;8.40;7.50;;;;;;;-128.00;-1.00;-1.00;105791;1253;1044856;-75
2023/07/24 11:11:19;;;;;;;10.10;7.70;;;;;;;-128.00;-1.00;-1.00;105803;1252;1046949;-76
2023/07/24 11:13:46;;;;;;;10.20;8.80;;;;;;;-128.00;-1.00;-1.00;105828;1253;1003773;-76
2023/07/24 11:16:12;;;;;;;8.30;7.10;;;;;;;-128.00;-1.00;-1.00;105778;1252;1005197;-76
2023/07/24 11:18:51;;;;;;;8.70;7.90;;;;;;;-128.00;-1.00;-1.00;105856;1252;1005128;-77